Time;durP1;ratioP1;P1;durP2;ratioP2;P2;SDS_P1;SDS_P2;PMS_P1;PMS_P2;Temp;Humidity;BMP_temperature;BMP_pressure;BME280_temperature;BME280_humidity;BME280_pressure;Samples;Min_cycle;Max_cycle;Signal;HPM_P1;HPM_P2
2023/07/07 00:00:56;;;;;;;4.45;3.40;;;12.60;99.90;;;;;;5135600;27;20427;-61
2023/07/07 00:03:21;;;;;;;3.70;3.15;;;12.60;99.90;;;;;;5121789;27;20080;-61
2023/07/07 00:05:48;;;;;;;2.90;2.70;;;12.60;99.90;;;;;;5119354;27;20038;-61
2023/07/07 00:08:14;;;;;;;3.20;2.90;;;12.60;99.90;;;;;;5146119;27;20043;-60
2023/07/07 00:10:42;;;;;;;3.50;3.20;;;12.60;99.90;;;;;;5124784;27;20071;-60
2023/07/07 00:13:09;;;;;;;3.25;2.95;;;12.60;99.90;;;;;;5114001;27;20482;-60
2023/07/07 00:15:35;;;;;;;4.68;2.97;;;12.50;99.90;;;;;;5117920;27;20416;-61
2023/07/07 00:18:00;;;;;;;9.55;3.97;;;12.50;99.90;;;;;;5117238;27;20043;-61
2023/07/07 00:20:26;;;;;;;3.97;3.28;;;12.50;99.90;;;;;;5131926;27;20038;-61
2023/07/07 00:22:55;;;;;;;3.55;3.13;;;12.50;99.90;;;;;;5127033;27;20030;-60
2023/07/07 00:25:21;;;;;;;5.05;3.47;;;12.40;99.90;;;;;;5123981;27;20035;-61
2023/07/07 00:27:47;;;;;;;4.45;3.10;;;12.40;99.90;;;;;;5137191;27;20049;-61
2023/07/07 00:30:13;;;;;;;4.75;3.22;;;12.40;99.90;;;;;;5133853;27;20054;-61
2023/07/07 00:32:39;;;;;;;3.95;2.90;;;12.40;99.90;;;;;;5124936;27;20043;-61
2023/07/07 00:35:05;;;;;;;4.20;3.50;;;12.40;99.90;;;;;;5129706;27;20039;-60
2023/07/07 00:37:30;;;;;;;4.45;3.20;;;12.40;99.90;;;;;;5113036;27;20054;-61
2023/07/07 00:39:56;;;;;;;3.83;3.38;;;12.40;99.90;;;;;;5113659;27;20031;-61
2023/07/07 00:42:22;;;;;;;3.35;2.88;;;12.40;99.90;;;;;;5113349;27;20077;-61
2023/07/07 00:45:15;;;;;;;3.53;2.92;;;12.30;99.90;;;;;;5131833;27;20035;-61
2023/07/07 00:47:47;;;;;;;4.07;2.60;;;12.40;99.90;;;;;;5119617;27;20060;-61
2023/07/07 00:50:14;;;;;;;3.60;2.58;;;12.30;99.90;;;;;;5146504;27;20039;-60
2023/07/07 00:52:43;;;;;;;4.10;3.53;;;12.30;99.90;;;;;;5145754;27;20549;-61
2023/07/07 00:55:14;;;;;;;3.20;2.90;;;12.30;99.90;;;;;;5138440;27;20057;-61
2023/07/07 00:57:39;;;;;;;3.50;2.53;;;12.30;99.90;;;;;;5120230;27;20072;-61
2023/07/07 01:00:06;;;;;;;4.20;3.80;;;12.30;99.90;;;;;;5113310;27;20070;-61
2023/07/07 01:02:32;;;;;;;6.28;4.50;;;12.30;99.90;;;;;;5127945;27;20070;-61
2023/07/07 01:05:02;;;;;;;6.15;5.55;;;12.30;99.90;;;;;;5101587;27;20402;-61
2023/07/07 01:07:37;;;;;;;7.47;5.30;;;12.30;99.90;;;;;;5134744;27;20053;-61
2023/07/07 01:10:03;;;;;;;7.10;5.43;;;12.30;99.90;;;;;;5135387;27;20516;-61
2023/07/07 01:12:28;;;;;;;6.72;5.75;;;12.40;99.90;;;;;;5115263;27;20039;-61
2023/07/07 01:14:54;;;;;;;6.05;5.45;;;12.40;99.90;;;;;;5150791;27;20132;-61
2023/07/07 01:17:38;;;;;;;7.90;6.18;;;12.50;99.90;;;;;;5132906;27;20050;-61
2023/07/07 01:20:13;;;;;;;7.60;5.75;;;12.50;99.90;;;;;;5130712;27;20064;-61
2023/07/07 01:22:59;;;;;;;9.05;6.25;;;12.50;99.90;;;;;;5146417;27;20051;-61
2023/07/07 01:25:55;;;;;;;8.48;6.13;;;12.40;99.90;;;;;;5144230;27;20030;-60
2023/07/07 01:28:31;;;;;;;7.00;5.85;;;12.40;99.90;;;;;;5129456;27;20490;-61
2023/07/07 01:31:01;;;;;;;7.88;6.57;;;12.40;99.90;;;;;;5129670;27;20125;-61
2023/07/07 01:33:31;;;;;;;8.68;7.43;;;12.40;99.90;;;;;;5141083;27;20093;-61
2023/07/07 01:35:56;;;;;;;10.23;7.45;;;12.40;99.90;;;;;;5129493;27;20114;-61
2023/07/07 01:38:38;;;;;;;10.00;7.13;;;12.40;99.90;;;;;;5115013;27;20577;-61
2023/07/07 01:41:31;;;;;;;9.40;7.15;;;12.40;99.90;;;;;;5114685;27;20043;-61
2023/07/07 01:44:14;;;;;;;;;;;12.50;99.90;;;;;;5134969;27;20428;-61
2023/07/07 01:47:01;;;;;;;8.45;7.60;;;12.50;99.90;;;;;;5140469;27;19922;-60
2023/07/07 01:49:47;;;;;;;9.00;7.60;;;12.50;99.90;;;;;;5117994;27;20042;-61
2023/07/07 01:52:19;;;;;;;10.00;7.95;;;12.50;99.90;;;;;;5130455;27;20127;-60
2023/07/07 01:54:51;;;;;;;13.52;9.50;;;12.60;99.90;;;;;;5121093;27;20543;-61
2023/07/07 01:57:18;;;;;;;10.82;9.77;;;12.60;99.90;;;;;;5115669;27;20053;-61
2023/07/07 01:59:44;;;;;;;12.82;9.43;;;12.60;99.90;;;;;;5142037;27;20059;-60
2023/07/07 02:02:10;;;;;;;12.77;9.23;;;12.70;99.90;;;;;;5150722;27;20549;-61
2023/07/07 02:04:35;;;;;;;14.07;9.38;;;12.70;99.90;;;;;;5146108;27;20035;-61
2023/07/07 02:07:01;;;;;;;12.20;9.45;;;12.70;99.90;;;;;;5112190;28;20035;-61
2023/07/07 02:09:27;;;;;;;10.82;9.40;;;12.70;99.90;;;;;;5132233;27;20104;-60
2023/07/07 02:11:53;;;;;;;12.05;9.50;;;12.70;99.90;;;;;;5128875;27;20426;-61
2023/07/07 02:14:18;;;;;;;12.45;9.38;;;12.70;99.90;;;;;;5112033;28;20103;-61
2023/07/07 02:16:45;;;;;;;12.88;10.52;;;12.80;99.90;;;;;;5148233;27;20557;-60
2023/07/07 02:19:12;;;;;;;13.57;9.98;;;12.80;99.90;;;;;;5131221;27;20090;-61
2023/07/07 02:21:37;;;;;;;12.48;9.88;;;12.80;99.90;;;;;;5129168;27;20047;-61
2023/07/07 02:24:03;;;;;;;10.77;9.35;;;12.80;99.90;;;;;;5133307;27;20039;-61
2023/07/07 02:26:29;;;;;;;12.02;9.68;;;12.80;99.90;;;;;;5118561;27;20074;-60
2023/07/07 02:28:54;;;;;;;12.00;9.88;;;12.90;99.90;;;;;;5141583;27;20050;-61
2023/07/07 02:31:24;;;;;;;15.80;10.73;;;12.80;99.90;;;;;;5141306;27;20039;-60
2023/07/07 02:33:50;;;;;;;13.75;10.35;;;12.80;99.90;;;;;;5113598;28;20469;-60
2023/07/07 02:36:18;;;;;;;13.95;9.85;;;12.80;99.90;;;;;;5117517;27;20157;-61
2023/07/07 02:38:45;;;;;;;12.68;9.85;;;12.90;99.90;;;;;;5112258;27;20039;-61
2023/07/07 02:41:11;;;;;;;11.63;9.77;;;12.90;99.90;;;;;;5120939;27;20039;-61
2023/07/07 02:43:37;;;;;;;12.75;9.70;;;12.90;99.90;;;;;;5120662;27;20043;-61
2023/07/07 02:46:03;;;;;;;13.02;9.95;;;12.90;99.90;;;;;;5115315;27;20049;-60
2023/07/07 02:48:28;;;;;;;14.13;10.43;;;12.90;99.90;;;;;;5150607;27;20065;-61
2023/07/07 02:50:55;;;;;;;11.15;9.98;;;12.90;99.90;;;;;;5130255;27;20050;-61
2023/07/07 02:53:24;;;;;;;13.30;10.50;;;12.80;99.90;;;;;;5118978;27;20046;-60
2023/07/07 02:55:49;;;;;;;14.02;11.00;;;12.80;99.90;;;;;;5154348;27;20078;-61
2023/07/07 02:58:15;;;;;;;14.93;11.95;;;12.80;99.90;;;;;;5126922;27;20074;-61
2023/07/07 03:00:41;;;;;;;12.05;10.85;;;12.90;99.90;;;;;;5135694;27;20039;-61
2023/07/07 03:03:07;;;;;;;13.48;10.82;;;12.90;99.90;;;;;;5123668;27;20512;-61
2023/07/07 03:05:33;;;;;;;16.48;11.18;;;12.90;99.90;;;;;;5131934;27;20039;-61
2023/07/07 03:07:58;;;;;;;13.80;10.82;;;12.90;99.90;;;;;;5120973;27;20042;-61
2023/07/07 03:10:24;;;;;;;17.15;12.05;;;12.80;99.90;;;;;;5152757;27;20601;-61
2023/07/07 03:12:50;;;;;;;11.50;10.30;;;12.80;99.90;;;;;;5135074;27;20047;-61
2023/07/07 03:15:20;;;;;;;14.43;10.73;;;12.80;99.90;;;;;;5106155;27;20091;-61
2023/07/07 03:17:46;;;;;;;12.80;10.77;;;12.80;99.90;;;;;;5135325;27;20035;-61
2023/07/07 03:20:12;;;;;;;13.57;10.45;;;12.80;99.90;;;;;;5118682;27;20035;-61
2023/07/07 03:22:38;;;;;;;15.18;11.68;;;12.70;99.90;;;;;;5118978;27;20261;-61
2023/07/07 03:25:04;;;;;;;13.07;11.35;;;12.70;99.90;;;;;;5134824;27;20046;-61
2023/07/07 03:27:29;;;;;;;19.67;12.35;;;12.80;99.90;;;;;;5100328;27;20031;-61
2023/07/07 03:29:55;;;;;;;14.32;11.38;;;12.80;99.90;;;;;;5123854;27;20489;-61
2023/07/07 03:32:21;;;;;;;14.90;11.95;;;12.80;99.90;;;;;;5153597;27;20042;-61
2023/07/07 03:34:47;;;;;;;14.40;10.88;;;12.80;99.90;;;;;;5144253;27;20070;-61
2023/07/07 03:37:13;;;;;;;15.77;11.00;;;12.80;99.90;;;;;;5117094;27;20047;-61
2023/07/07 03:39:39;;;;;;;14.57;12.27;;;12.70;99.90;;;;;;5114582;27;20050;-61
2023/07/07 03:42:08;;;;;;;15.88;11.70;;;12.80;99.90;;;;;;5132751;27;20023;-61
2023/07/07 03:44:34;;;;;;;13.32;11.50;;;12.80;99.90;;;;;;5134505;27;20045;-61
2023/07/07 03:47:00;;;;;;;15.60;12.07;;;12.80;99.90;;;;;;5117163;27;20478;-61
2023/07/07 03:49:26;;;;;;;13.73;11.70;;;12.80;99.90;;;;;;5137174;27;20160;-61
2023/07/07 03:51:51;;;;;;;16.48;13.07;;;12.80;99.90;;;;;;5140940;27;20445;-61
2023/07/07 03:54:17;;;;;;;13.43;11.95;;;12.90;99.90;;;;;;5148389;27;20113;-61
2023/07/07 03:56:43;;;;;;;13.40;11.57;;;12.90;99.90;;;;;;5149836;27;20069;-61
2023/07/07 03:59:08;;;;;;;17.45;12.80;;;13.00;99.90;;;;;;5119258;27;20100;-61
2023/07/07 04:01:34;;;;;;;17.98;12.18;;;13.00;99.90;;;;;;5125220;27;20069;-61
2023/07/07 04:03:59;;;;;;;15.25;12.68;;;13.10;99.90;;;;;;5134385;27;20039;-61
2023/07/07 04:06:25;;;;;;;16.35;12.13;;;13.20;99.90;;;;;;5137173;27;20512;-61
2023/07/07 04:08:51;;;;;;;16.85;12.85;;;13.30;99.90;;;;;;5106402;27;20051;-62
2023/07/07 04:11:20;;;;;;;18.20;12.20;;;13.30;99.90;;;;;;5148689;27;20043;-61
2023/07/07 04:13:48;;;;;;;15.57;12.35;;;13.40;99.90;;;;;;5152817;27;20462;-61
2023/07/07 04:16:18;;;;;;;14.27;11.85;;;13.40;99.90;;;;;;5121015;27;20047;-61
2023/07/07 04:18:44;;;;;;;13.60;11.68;;;13.50;99.90;;;;;;5122603;27;20553;-61
2023/07/07 04:21:13;;;;;;;15.88;11.65;;;13.50;99.90;;;;;;5135268;27;20047;-61
2023/07/07 04:23:42;;;;;;;16.13;13.60;;;13.60;99.90;;;;;;5135854;27;20080;-62
2023/07/07 04:26:08;;;;;;;17.70;12.50;;;13.60;99.90;;;;;;5149088;27;20039;-61
2023/07/07 04:28:38;;;;;;;17.02;13.65;;;13.70;99.90;;;;;;5144643;27;20432;-61
2023/07/07 04:31:06;;;;;;;15.00;12.75;;;13.70;99.90;;;;;;5115672;27;20043;-61
2023/07/07 04:33:33;;;;;;;20.63;13.65;;;13.80;99.90;;;;;;5128967;27;20042;-61
2023/07/07 04:36:01;;;;;;;14.93;12.38;;;13.90;99.90;;;;;;5131403;27;20485;-61
2023/07/07 04:38:31;;;;;;;14.95;12.90;;;13.90;99.90;;;;;;5121815;27;20042;-61
2023/07/07 04:41:05;;;;;;;16.42;13.55;;;14.00;99.90;;;;;;5125186;27;20034;-62
2023/07/07 04:43:32;;;;;;;15.85;12.48;;;14.10;99.90;;;;;;5118933;27;20042;-61
2023/07/07 04:45:59;;;;;;;13.32;11.90;;;14.10;99.90;;;;;;5113282;27;20047;-61
2023/07/07 04:48:24;;;;;;;15.55;13.27;;;14.20;99.90;;;;;;5116561;27;20050;-61
2023/07/07 04:50:55;;;;;;;19.42;13.50;;;14.20;99.90;;;;;;5114138;27;20049;-61
2023/07/07 04:53:21;;;;;;;16.55;13.23;;;14.30;99.90;;;;;;5136506;27;20047;-61
2023/07/07 04:55:46;;;;;;;16.88;13.43;;;14.40;99.90;;;;;;5143448;27;20054;-61
2023/07/07 04:58:12;;;;;;;20.45;13.27;;;14.40;99.90;;;;;;5151639;27;20070;-61
2023/07/07 05:00:38;;;;;;;15.35;11.88;;;14.50;99.90;;;;;;5120390;27;20269;-61
2023/07/07 05:03:04;;;;;;;14.40;11.98;;;14.60;99.90;;;;;;5115507;27;20477;-61
2023/07/07 05:05:30;;;;;;;14.38;12.23;;;14.70;99.90;;;;;;5115038;27;20103;-61
2023/07/07 05:07:55;;;;;;;14.95;12.43;;;14.80;99.90;;;;;;5123620;27;20072;-61
2023/07/07 05:10:21;;;;;;;16.73;12.98;;;14.90;99.90;;;;;;5142861;27;20026;-61
2023/07/07 05:12:47;;;;;;;14.57;11.85;;;15.00;99.90;;;;;;5147881;27;20034;-61
2023/07/07 05:15:12;;;;;;;14.32;12.15;;;15.10;99.90;;;;;;5140829;27;20040;-61
2023/07/07 05:17:38;;;;;;;13.02;11.32;;;15.10;99.90;;;;;;5113004;27;20405;-61
2023/07/07 05:20:04;;;;;;;14.25;11.43;;;15.30;99.90;;;;;;5121038;27;20122;-61
2023/07/07 05:22:30;;;;;;;14.52;12.10;;;15.40;99.90;;;;;;5122508;27;20088;-61
2023/07/07 05:24:55;;;;;;;14.95;12.18;;;15.50;99.90;;;;;;5116658;27;20070;-61
2023/07/07 05:27:21;;;;;;;17.40;12.10;;;15.70;99.90;;;;;;5122739;27;20161;-61
2023/07/07 05:29:49;;;;;;;14.50;11.20;;;15.80;99.90;;;;;;5143145;27;20133;-61
2023/07/07 05:32:15;;;;;;;15.05;12.05;;;15.90;99.90;;;;;;5134652;27;20042;-61
2023/07/07 05:34:40;;;;;;;13.73;11.57;;;16.00;99.90;;;;;;5142693;27;20493;-61
2023/07/07 05:37:06;;;;;;;15.43;11.05;;;16.10;99.90;;;;;;5124714;27;20042;-61
2023/07/07 05:39:32;;;;;;;12.52;11.25;;;16.20;99.90;;;;;;5114781;27;20081;-61
2023/07/07 05:41:57;;;;;;;14.38;10.75;;;16.30;99.90;;;;;;5131246;27;20057;-61
2023/07/07 05:44:23;;;;;;;11.50;10.30;;;16.40;99.90;;;;;;5140999;27;20066;-60
2023/07/07 05:46:48;;;;;;;11.30;9.95;;;16.50;99.90;;;;;;5120686;27;20028;-61
2023/07/07 05:49:14;;;;;;;12.60;10.40;;;16.60;99.90;;;;;;5122933;28;20500;-61
2023/07/07 05:51:40;;;;;;;11.90;9.70;;;16.70;99.90;;;;;;5130529;27;20459;-60
2023/07/07 05:54:05;;;;;;;13.00;10.25;;;16.80;99.90;;;;;;5112075;27;20043;-61
2023/07/07 05:56:31;;;;;;;15.77;10.15;;;16.90;99.90;;;;;;5117062;27;20039;-61
2023/07/07 05:58:57;;;;;;;12.15;9.82;;;17.00;99.90;;;;;;5130983;27;20126;-61
2023/07/07 06:01:24;;;;;;;13.25;8.75;;;17.20;99.90;;;;;;5123337;27;20054;-61
2023/07/07 06:03:50;;;;;;;13.93;10.05;;;17.30;99.90;;;;;;5119927;27;20537;-61
2023/07/07 06:06:16;;;;;;;12.63;9.48;;;17.50;99.90;;;;;;5142935;27;20037;-61
2023/07/07 06:08:42;;;;;;;10.73;8.88;;;17.60;99.90;;;;;;5140847;27;20031;-61
2023/07/07 06:11:08;;;;;;;11.30;8.93;;;17.80;99.90;;;;;;5137771;27;20074;-61
2023/07/07 06:13:33;;;;;;;12.75;8.90;;;17.80;99.90;;;;;;5121676;27;20065;-62
2023/07/07 06:16:00;;;;;;;10.60;8.27;;;17.90;99.90;;;;;;5124389;27;20409;-60
2023/07/07 06:18:26;;;;;;;11.93;8.57;;;18.10;99.90;;;;;;5140726;27;20043;-61
2023/07/07 06:20:57;;;;;;;9.50;7.63;;;18.30;99.90;;;;;;5130234;27;20459;-61
2023/07/07 06:23:23;;;;;;;10.95;7.78;;;18.40;99.90;;;;;;5117208;27;20031;-61
2023/07/07 06:25:49;;;;;;;11.15;6.93;;;18.50;99.90;;;;;;5142252;27;20035;-61
2023/07/07 06:28:19;;;;;;;12.48;7.65;;;18.60;99.90;;;;;;5128092;27;20075;-61
2023/07/07 06:30:49;;;;;;;12.95;7.45;;;18.80;99.90;;;;;;5120017;27;20083;-61
2023/07/07 06:33:15;;;;;;;12.40;7.00;;;19.00;99.90;;;;;;5126948;27;20110;-61
2023/07/07 06:35:42;;;;;;;8.77;6.90;;;19.10;99.90;;;;;;5136360;27;20099;-61
2023/07/07 06:38:08;;;;;;;8.38;6.18;;;19.20;99.90;;;;;;5135548;27;20078;-61
2023/07/07 06:40:34;;;;;;;9.68;6.50;;;19.40;99.90;;;;;;5118047;27;20085;-61
2023/07/07 06:43:01;;;;;;;10.15;6.75;;;19.60;99.90;;;;;;5130842;27;20058;-61
2023/07/07 06:45:27;;;;;;;7.22;6.00;;;19.80;99.90;;;;;;5154538;27;20034;-61
2023/07/07 06:47:54;;;;;;;9.82;6.18;;;19.90;99.90;;;;;;5135648;27;20050;-61
2023/07/07 06:50:35;;;;;;;8.43;5.75;;;20.00;99.90;;;;;;5118411;27;20034;-61
2023/07/07 06:53:00;;;;;;;8.20;5.30;;;20.10;99.90;;;;;;5137257;27;20046;-62
2023/07/07 06:55:26;;;;;;;8.57;4.90;;;20.20;99.90;;;;;;5133475;27;20393;-61
2023/07/07 06:57:52;;;;;;;9.45;5.40;;;20.30;99.90;;;;;;5139635;27;20144;-61
2023/07/07 07:00:18;;;;;;;5.90;4.68;;;20.50;99.90;;;;;;5132599;27;20458;-61
2023/07/07 07:02:44;;;;;;;5.25;4.28;;;20.60;99.90;;;;;;5115169;27;20125;-62
2023/07/07 07:05:10;;;;;;;7.40;4.97;;;20.80;99.90;;;;;;5133284;27;20073;-61
2023/07/07 07:07:36;;;;;;;7.82;4.30;;;20.90;99.90;;;;;;5114653;27;20070;-61
2023/07/07 07:10:02;;;;;;;5.65;4.18;;;20.90;99.90;;;;;;5114553;27;20512;-61
2023/07/07 07:12:29;;;;;;;5.10;3.70;;;21.00;99.90;;;;;;5114541;27;20043;-61
2023/07/07 07:14:55;;;;;;;8.10;3.75;;;21.10;99.90;;;;;;5122627;27;20055;-61
2023/07/07 07:17:24;;;;;;;6.70;3.35;;;21.30;99.90;;;;;;5131570;27;20046;-61
2023/07/07 07:19:51;;;;;;;4.53;3.22;;;21.40;99.90;;;;;;5133221;27;20093;-61
2023/07/07 07:22:17;;;;;;;6.85;3.40;;;21.50;99.90;;;;;;5131431;27;20111;-62
2023/07/07 07:24:42;;;;;;;5.82;3.38;;;21.60;99.90;;;;;;5129396;27;20077;-61
2023/07/07 07:27:08;;;;;;;20.58;4.05;;;21.70;99.90;;;;;;5114394;27;20034;-60
2023/07/07 07:29:34;;;;;;;4.55;3.20;;;21.90;99.90;;;;;;5114573;27;20067;-62
2023/07/07 07:31:59;;;;;;;6.32;3.80;;;21.90;99.90;;;;;;5124199;27;20031;-62
2023/07/07 07:34:30;;;;;;;7.85;4.07;;;22.00;99.90;;;;;;5120098;27;20039;-61
2023/07/07 07:36:58;;;;;;;8.32;3.72;;;22.10;99.90;;;;;;5116420;27;20035;-61
2023/07/07 07:39:24;;;;;;;7.45;3.95;;;22.20;99.90;;;;;;5112338;28;20032;-61
2023/07/07 07:41:51;;;;;;;7.47;3.88;;;22.30;99.90;;;;;;5119101;27;20046;-61
2023/07/07 07:44:19;;;;;;;6.68;4.00;;;22.40;99.90;;;;;;5116917;27;20453;-61
2023/07/07 07:46:47;;;;;;;10.50;4.07;;;22.50;99.90;;;;;;5123404;27;20115;-62
2023/07/07 07:49:12;;;;;;;6.82;3.42;;;22.60;99.90;;;;;;5116213;27;20032;-62
2023/07/07 07:51:39;;;;;;;6.95;3.70;;;22.60;99.80;;;;;;5110351;28;20035;-61
2023/07/07 07:54:10;;;;;;;7.63;3.35;;;22.70;99.70;;;;;;5111751;28;20040;-61
2023/07/07 07:56:37;;;;;;;6.38;3.08;;;22.90;99.50;;;;;;5119871;27;20043;-62
2023/07/07 07:59:04;;;;;;;6.70;3.05;;;23.00;99.40;;;;;;5112198;27;20047;-62
2023/07/07 08:01:29;;;;;;;6.82;3.00;;;23.10;99.50;;;;;;5111464;27;20535;-61
2023/07/07 08:03:55;;;;;;;6.32;2.63;;;23.10;99.30;;;;;;5110100;28;20036;-62
2023/07/07 08:06:21;;;;;;;7.60;3.10;;;23.30;99.70;;;;;;5119416;27;20110;-61
2023/07/07 08:08:47;;;;;;;4.43;2.42;;;23.50;99.10;;;;;;5118626;27;20047;-61
2023/07/07 08:11:15;;;;;;;4.40;2.30;;;23.60;98.80;;;;;;5109817;28;20146;-61
2023/07/07 08:13:40;;;;;;;4.80;2.72;;;23.70;98.50;;;;;;5121576;27;20086;-61
2023/07/07 08:16:09;;;;;;;5.20;2.47;;;23.80;97.60;;;;;;5133325;27;20090;-61
2023/07/07 08:18:35;;;;;;;5.70;2.33;;;23.90;97.30;;;;;;5115823;27;20055;-62
2023/07/07 08:21:00;;;;;;;6.05;3.08;;;23.90;96.30;;;;;;5145467;27;20410;-60
2023/07/07 08:23:26;;;;;;;4.10;2.30;;;23.90;95.70;;;;;;5146207;27;20515;-61
2023/07/07 08:25:52;;;;;;;4.45;2.20;;;24.00;95.90;;;;;;5116075;27;20057;-62
2023/07/07 08:28:18;;;;;;;4.68;2.50;;;24.10;96.10;;;;;;5128630;27;20042;-61
2023/07/07 08:30:44;;;;;;;3.78;2.17;;;24.20;95.10;;;;;;5133663;27;20034;-62
2023/07/07 08:33:09;;;;;;;4.38;2.35;;;24.40;95.20;;;;;;5143092;27;20066;-62
2023/07/07 08:35:35;;;;;;;5.95;2.30;;;24.40;93.80;;;;;;5115899;27;20043;-61
2023/07/07 08:38:02;;;;;;;3.22;2.22;;;24.50;93.40;;;;;;5123118;27;20042;-62
2023/07/07 08:40:35;;;;;;;4.38;2.10;;;24.50;92.50;;;;;;5115276;27;20079;-62
2023/07/07 08:43:01;;;;;;;6.10;2.00;;;24.60;91.40;;;;;;5137179;27;20027;-62
2023/07/07 08:45:27;;;;;;;5.72;2.10;;;24.80;91.50;;;;;;5132644;27;20035;-62
2023/07/07 08:48:17;;;;;;;4.15;1.88;;;24.80;91.30;;;;;;5115886;27;20560;-62
2023/07/07 08:51:15;;;;;;;5.45;2.28;;;25.00;90.60;;;;;;5138869;27;20147;-61
2023/07/07 08:53:46;;;;;;;3.78;2.20;;;25.20;91.70;;;;;;5141314;27;20107;-62
2023/07/07 08:56:30;;;;;;;3.60;1.70;;;25.30;91.50;;;;;;5145483;27;20043;-62
2023/07/07 08:59:16;;;;;;;3.40;2.30;;;25.40;90.30;;;;;;5134130;27;20069;-61
2023/07/07 09:02:11;;;;;;;5.30;2.17;;;25.40;86.30;;;;;;5120378;27;20035;-62
2023/07/07 09:04:55;;;;;;;2.38;1.75;;;25.30;84.90;;;;;;5119063;27;20039;-62
2023/07/07 09:07:56;;;;;;;3.35;1.90;;;25.30;86.80;;;;;;5119305;27;20118;-61
2023/07/07 09:10:33;;;;;;;2.80;1.95;;;25.50;86.70;;;;;;5141592;27;20087;-62
2023/07/07 09:13:05;;;;;;;2.78;1.88;;;25.70;84.00;;;;;;5145234;27;20082;-62
2023/07/07 09:15:38;;;;;;;4.78;2.30;;;25.70;84.00;;;;;;5119753;27;20149;-62
2023/07/07 09:18:12;;;;;;;3.40;2.10;;;25.90;83.60;;;;;;5139914;27;20473;-61
2023/07/07 09:20:39;;;;;;;4.93;2.20;;;25.90;84.50;;;;;;5126838;27;20034;-62
2023/07/07 09:23:16;;;;;;;4.80;2.33;;;26.00;82.80;;;;;;5118825;27;20031;-62
2023/07/07 09:25:49;;;;;;;5.05;2.10;;;26.10;80.30;;;;;;5107473;27;20043;-62
2023/07/07 09:28:16;;;;;;;6.25;2.30;;;26.10;80.20;;;;;;5142617;27;20054;-62
2023/07/07 09:31:01;;;;;;;5.20;2.20;;;26.10;79.20;;;;;;5123222;27;20034;-66
2023/07/07 09:33:27;;;;;;;3.60;2.03;;;26.10;78.90;;;;;;5123334;27;20050;-65
2023/07/07 09:36:37;;;;;;;4.10;2.03;;;26.10;78.90;;;;;;5121693;27;20469;-65
2023/07/07 09:39:27;;;;;;;3.35;2.20;;;26.20;80.30;;;;;;5007052;28;20096;-65
2023/07/07 09:42:04;;;;;;;3.65;2.17;;;26.40;80.50;;;;;;5008030;28;20147;-64
2023/07/07 09:44:45;;;;;;;5.70;2.10;;;26.40;77.30;;;;;;5010232;28;20037;-65
2023/07/07 09:47:52;;;;;;;3.20;1.90;;;26.50;77.00;;;;;;5000270;28;20053;-65
2023/07/07 09:50:48;;;;;;;7.47;2.38;;;26.60;75.50;;;;;;5010193;28;20084;-65
2023/07/07 09:53:23;;;;;;;5.05;2.10;;;26.60;74.70;;;;;;5009386;28;20049;-65
2023/07/07 09:55:50;;;;;;;2.55;1.98;;;26.80;76.20;;;;;;5008935;28;20556;-65
2023/07/07 09:58:36;;;;;;;4.72;2.38;;;26.80;75.90;;;;;;5024790;28;20045;-66
2023/07/07 10:01:03;;;;;;;4.15;2.10;;;26.90;74.60;;;;;;5010413;28;20052;-64
2023/07/07 10:03:29;;;;;;;4.60;2.28;;;26.90;73.30;;;;;;5010251;28;20080;-65
2023/07/07 10:05:56;;;;;;;3.97;2.40;;;27.00;73.60;;;;;;5007607;28;20077;-65
2023/07/07 10:08:22;;;;;;;4.35;1.85;;;27.10;73.30;;;;;;5008147;28;20045;-65
2023/07/07 10:11:00;;;;;;;3.50;1.92;;;27.10;71.90;;;;;;5026365;28;20033;-65
2023/07/07 10:13:25;;;;;;;3.65;1.95;;;27.10;72.80;;;;;;5080953;27;20138;-65
2023/07/07 10:15:59;;;;;;;4.47;2.03;;;27.10;71.80;;;;;;5113384;27;20184;-64
2023/07/07 10:18:29;;;;;;;4.95;2.10;;;27.10;71.00;;;;;;5136536;27;20213;-66
2023/07/07 10:21:03;;;;;;;3.72;2.05;;;27.20;72.50;;;;;;5111419;27;20077;-64
2023/07/07 10:23:29;;;;;;;2.65;1.98;;;27.40;72.40;;;;;;5121922;27;20561;-64
2023/07/07 10:25:55;;;;;;;5.18;2.10;;;27.60;73.00;;;;;;5118882;27;20389;-65
2023/07/07 10:28:22;;;;;;;5.15;1.98;;;27.60;70.70;;;;;;5114305;27;20039;-66
2023/07/07 10:30:48;;;;;;;3.58;2.10;;;27.60;70.30;;;;;;5117132;27;20043;-64
2023/07/07 10:33:17;;;;;;;3.55;2.10;;;27.60;69.70;;;;;;5114914;27;20038;-64
2023/07/07 10:35:43;;;;;;;2.88;2.00;;;27.60;68.80;;;;;;5131633;27;20477;-65
2023/07/07 10:38:10;;;;;;;3.83;2.38;;;27.60;69.00;;;;;;5115053;27;20054;-64
2023/07/07 10:40:37;;;;;;;3.63;2.08;;;27.70;68.30;;;;;;5131639;27;20118;-64
2023/07/07 10:43:05;;;;;;;3.03;1.90;;;27.80;69.40;;;;;;5137693;27;20172;-65
2023/07/07 10:45:31;;;;;;;3.78;2.20;;;27.80;68.90;;;;;;5111421;27;20046;-65
2023/07/07 10:47:56;;;;;;;3.90;2.15;;;27.80;67.90;;;;;;5137644;27;20035;-65
2023/07/07 10:50:27;;;;;;;4.22;2.25;;;27.60;66.20;;;;;;5142535;27;20031;-65
2023/07/07 10:53:13;;;;;;;2.28;1.80;;;27.60;67.90;;;;;;5126810;27;20058;-65
2023/07/07 10:56:03;;;;;;;3.10;2.03;;;27.70;69.30;;;;;;5129628;27;20045;-64
2023/07/07 10:58:44;;;;;;;2.55;1.63;;;27.80;68.10;;;;;;5116581;27;20039;-64
2023/07/07 11:01:42;;;;;;;6.43;2.35;;;28.10;73.30;;;;;;5122435;27;20065;-64
2023/07/07 11:04:18;;;;;;;4.45;2.00;;;28.10;70.30;;;;;;5115272;27;20074;-65
2023/07/07 11:06:51;;;;;;;6.20;2.30;;;28.20;75.00;;;;;;5128773;27;20521;-64
2023/07/07 11:09:22;;;;;;;4.57;1.90;;;28.30;66.10;;;;;;5126289;27;20042;-65
2023/07/07 11:12:01;;;;;;;2.97;2.10;;;28.10;65.50;;;;;;5121425;27;20125;-65
2023/07/07 11:14:30;;;;;;;3.53;2.33;;;28.10;64.60;;;;;;5117863;27;20042;-65
2023/07/07 11:17:01;;;;;;;3.70;2.00;;;28.10;65.90;;;;;;5119956;27;20091;-66
2023/07/07 11:20:05;;;;;;;4.53;2.20;;;28.00;65.70;;;;;;5141290;27;20497;-63
2023/07/07 11:22:41;;;;;;;4.60;2.17;;;28.00;64.70;;;;;;5019165;28;20384;-64
2023/07/07 11:25:28;;;;;;;3.38;1.80;;;28.00;64.60;;;;;;5020778;28;20440;-64
2023/07/07 11:27:54;;;;;;;3.10;1.90;;;28.00;64.80;;;;;;5042945;28;20407;-64
2023/07/07 11:30:34;;;;;;;10.02;2.42;;;28.10;65.00;;;;;;5021987;28;20053;-65
2023/07/07 11:33:05;;;;;;;5.65;2.40;;;28.20;65.80;;;;;;5022045;28;20095;-64
2023/07/07 11:36:05;;;;;;;4.20;2.20;;;28.10;63.50;;;;;;5030823;28;20132;-65
2023/07/07 11:38:30;;;;;;;2.35;1.83;;;28.00;63.40;;;;;;4959451;28;20438;-64
2023/07/07 11:41:08;;;;;;;3.00;2.00;;;27.60;62.30;;;;;;4963145;28;20051;-63
2023/07/07 11:43:33;;;;;;;3.28;2.28;;;27.60;62.90;;;;;;4969944;28;21308;-64
2023/07/07 11:46:15;;;;;;;4.10;2.20;;;27.50;62.30;;;;;;4957830;28;20058;-65
2023/07/07 11:48:43;;;;;;;3.70;1.90;;;27.50;62.40;;;;;;4972157;28;20562;-65
2023/07/07 11:51:46;;;;;;;3.78;2.28;;;27.60;63.30;;;;;;4957897;28;20950;-64
2023/07/07 11:54:25;;;;;;;2.25;1.63;;;27.50;61.00;;;;;;4988177;28;20100;-65
2023/07/07 11:57:06;;;;;;;3.28;2.10;;;27.50;61.40;;;;;;5007586;28;20049;-64
2023/07/07 12:00:12;;;;;;;2.53;1.83;;;27.40;61.20;;;;;;4980478;28;20062;-65
2023/07/07 12:02:46;;;;;;;3.42;2.15;;;27.40;59.90;;;;;;5002053;28;20107;-65
2023/07/07 12:05:27;;;;;;;5.43;2.10;;;27.30;61.60;;;;;;4987960;28;20060;-65
2023/07/07 12:07:59;;;;;;;3.58;1.90;;;27.20;61.80;;;;;;5004024;28;20049;-66
2023/07/07 12:10:30;;;;;;;2.83;2.10;;;27.10;60.80;;;;;;4973109;28;20050;-65
2023/07/07 12:13:02;;;;;;;3.17;2.00;;;27.10;61.10;;;;;;4984838;28;20061;-66
2023/07/07 12:15:36;;;;;;;3.00;1.95;;;27.10;60.90;;;;;;5010044;28;20064;-64
2023/07/07 12:18:22;;;;;;;2.97;1.75;;;27.10;61.50;;;;;;5071966;28;20127;-64
2023/07/07 12:21:01;;;;;;;3.65;1.98;;;27.10;60.40;;;;;;5065989;28;20043;-64
2023/07/07 12:23:31;;;;;;;3.67;2.00;;;27.10;59.90;;;;;;5062167;28;20044;-65
2023/07/07 12:26:15;;;;;;;2.65;1.85;;;27.00;59.80;;;;;;5059287;28;20113;-65
2023/07/07 12:28:50;;;;;;;4.60;2.47;;;26.90;61.80;;;;;;5064012;28;20056;-65
2023/07/07 12:31:19;;;;;;;4.68;2.17;;;26.80;60.30;;;;;;5099329;27;20083;-65
2023/07/07 12:33:44;;;;;;;3.78;2.00;;;26.80;59.70;;;;;;5115683;27;20097;-64
2023/07/07 12:36:14;;;;;;;3.90;1.85;;;26.70;59.50;;;;;;5128913;27;20043;-64
2023/07/07 12:38:41;;;;;;;3.33;1.90;;;26.70;60.30;;;;;;5136879;27;20464;-64
2023/07/07 12:41:11;;;;;;;3.10;2.05;;;26.70;59.80;;;;;;5142235;27;20035;-65
2023/07/07 12:43:50;;;;;;;3.00;2.10;;;26.60;60.20;;;;;;5130965;27;20035;-64
2023/07/07 12:46:26;;;;;;;2.53;2.00;;;26.70;59.90;;;;;;5112899;27;20035;-63
2023/07/07 12:48:55;;;;;;;4.30;2.42;;;26.60;59.40;;;;;;5114088;27;20051;-64
2023/07/07 12:51:22;;;;;;;4.20;2.35;;;26.50;58.50;;;;;;5126481;27;20096;-67
2023/07/07 12:53:57;;;;;;;3.35;2.17;;;26.40;59.30;;;;;;5123875;27;20456;-64
2023/07/07 12:56:28;;;;;;;3.42;2.20;;;26.40;59.40;;;;;;5113833;27;20042;-64